createdAt,value
2017-11-25T00:01:01.498Z,96.10
2017-11-25T00:04:03.621Z,96.20
2017-11-25T00:07:05.015Z,96.20
2017-11-25T00:10:07.163Z,96.20
2017-11-25T00:13:08.507Z,96.20
2017-11-25T00:16:09.931Z,96.60
2017-11-25T00:19:11.298Z,96.30
2017-11-25T00:22:12.683Z,96.30
2017-11-25T00:25:14.814Z,96.40
2017-11-25T00:28:16.257Z,96.30
2017-11-25T00:31:17.800Z,96.30
2017-11-25T00:34:19.178Z,96.10
2017-11-25T00:37:20.638Z,96.20
2017-11-25T00:40:22.049Z,96.00
2017-11-25T00:43:23.455Z,96.10
2017-11-25T00:46:24.804Z,96.20
2017-11-25T00:49:26.215Z,96.20
2017-11-25T00:52:27.602Z,96.30
2017-11-25T00:55:29.071Z,96.30
2017-11-25T00:58:31.242Z,96.40
2017-11-25T01:01:32.600Z,96.30
2017-11-25T01:04:34.747Z,96.30
2017-11-25T01:07:36.102Z,96.20
2017-11-25T01:10:38.226Z,96.40
2017-11-25T01:13:39.617Z,96.40
2017-11-25T01:16:41.778Z,96.50
2017-11-25T01:19:43.218Z,96.40
2017-11-25T01:22:44.699Z,96.70
2017-11-25T01:25:46.904Z,96.70
2017-11-25T01:28:48.660Z,96.60
2017-11-25T01:31:50.541Z,96.60
2017-11-25T01:34:52.688Z,96.70
2017-11-25T01:37:54.166Z,96.60
2017-11-25T01:40:55.642Z,96.70
2017-11-25T01:43:57.151Z,96.70
2017-11-25T01:46:58.609Z,96.70
2017-11-25T01:50:00.084Z,96.80
2017-11-25T01:53:02.328Z,97.00
2017-11-25T01:56:03.818Z,96.90
2017-11-25T01:59:05.358Z,97.00
2017-11-25T02:02:07.610Z,97.20
2017-11-25T02:05:09.049Z,97.00
2017-11-25T02:08:10.450Z,97.40
2017-11-25T02:11:11.893Z,97.30
2017-11-25T02:14:13.377Z,97.10
2017-11-25T02:17:14.920Z,97.00
2017-11-25T02:20:16.366Z,96.80
2017-11-25T02:23:17.819Z,96.70
2017-11-25T02:26:19.358Z,96.50
2017-11-25T02:29:21.045Z,96.50
2017-11-25T02:32:22.522Z,96.30
2017-11-25T02:35:24.742Z,96.20
2017-11-25T02:38:26.270Z,96.20
2017-11-25T02:41:27.847Z,95.80
2017-11-25T02:44:29.364Z,95.60
2017-11-25T02:47:30.814Z,95.50
2017-11-25T02:50:33.235Z,95.60
2017-11-25T02:53:34.787Z,95.60
2017-11-25T02:56:36.292Z,95.50
2017-11-25T02:59:37.792Z,95.40
2017-11-25T03:02:39.236Z,95.20
2017-11-25T03:05:40.753Z,95.20
2017-11-25T03:08:42.942Z,95.50
2017-11-25T03:11:44.421Z,95.50
2017-11-25T03:14:45.888Z,95.40
2017-11-25T03:17:47.397Z,95.30
2017-11-25T03:20:48.898Z,95.40
2017-11-25T03:23:50.395Z,95.30
2017-11-25T03:26:52.151Z,95.40
2017-11-25T03:29:54.361Z,95.50
2017-11-25T03:32:55.869Z,95.40
2017-11-25T03:35:58.097Z,95.30
2017-11-25T03:38:59.640Z,95.30
2017-11-25T03:42:01.152Z,95.10
2017-11-25T03:45:03.451Z,95.10
2017-11-25T03:48:04.906Z,95.10
2017-11-25T03:51:06.374Z,95.30
2017-11-25T03:54:07.956Z,95.30
2017-11-25T03:57:09.480Z,95.30
2017-11-25T04:00:11.019Z,95.40
2017-11-25T04:03:12.480Z,95.40
2017-11-25T04:06:13.988Z,95.30
2017-11-25T04:09:16.221Z,95.10
2017-11-25T04:12:17.727Z,94.90
2017-11-25T04:15:19.898Z,95.00
2017-11-25T04:18:22.132Z,94.90
2017-11-25T04:21:23.617Z,94.80
2017-11-25T04:24:25.837Z,94.70
2017-11-25T04:27:27.362Z,94.60
2017-11-25T04:30:28.809Z,94.40
2017-11-25T04:33:30.306Z,94.70
2017-11-25T04:36:31.792Z,94.50
2017-11-25T04:39:34.002Z,94.80
2017-11-25T04:42:35.421Z,94.50
2017-11-25T04:45:37.631Z,94.50
2017-11-25T04:48:39.080Z,94.50
2017-11-25T04:51:40.581Z,94.40
2017-11-25T04:54:42.808Z,94.40
2017-11-25T04:57:44.294Z,94.30
2017-11-25T05:00:45.805Z,94.40
2017-11-25T05:03:47.242Z,94.30
2017-11-25T05:06:48.744Z,94.10
2017-11-25T05:09:50.254Z,94.20
2017-11-25T05:12:51.722Z,94.30
2017-11-25T05:15:53.222Z,94.20
2017-11-25T05:18:54.667Z,93.90
2017-11-25T05:21:56.209Z,94.10
2017-11-25T05:24:57.639Z,94.00
2017-11-25T05:27:59.144Z,93.90
2017-11-25T05:31:01.314Z,93.70
2017-11-25T05:34:03.581Z,94.40
2017-11-25T05:37:05.794Z,94.50
2017-11-25T05:40:07.288Z,94.10
2017-11-25T05:43:08.757Z,93.70
2017-11-25T05:46:10.272Z,94.10
2017-11-25T05:49:11.742Z,94.00
2017-11-25T05:52:13.216Z,94.10
2017-11-25T05:55:14.700Z,94.10
2017-11-25T05:58:16.139Z,94.20
2017-11-25T06:01:18.324Z,94.10
2017-11-25T06:04:19.735Z,94.00
2017-11-25T06:07:21.186Z,94.00
2017-11-25T06:10:22.594Z,94.00
2017-11-25T06:13:24.063Z,94.10
2017-11-25T06:16:25.538Z,94.10
2017-11-25T06:19:26.997Z,94.30
2017-11-25T06:22:28.427Z,94.10
2017-11-25T06:25:29.931Z,94.30
2017-11-25T06:28:32.137Z,94.20
2017-11-25T06:31:33.609Z,94.20
2017-11-25T06:34:35.090Z,94.30
2017-11-25T06:37:36.588Z,94.30
2017-11-25T06:40:38.056Z,94.70
2017-11-25T06:43:39.484Z,94.40
2017-11-25T06:46:40.985Z,94.40
2017-11-25T06:49:42.425Z,94.50
2017-11-25T06:52:43.941Z,94.40
2017-11-25T06:55:45.383Z,94.40
2017-11-25T06:58:47.595Z,94.40
2017-11-25T07:01:49.087Z,94.40
2017-11-25T07:04:51.273Z,94.30
2017-11-25T07:07:53.499Z,94.30
2017-11-25T07:10:55.713Z,94.10
2017-11-25T07:13:57.907Z,94.30
2017-11-25T07:16:59.380Z,94.30
2017-11-25T07:20:00.838Z,94.20
2017-11-25T07:23:03.029Z,94.20
2017-11-25T07:26:04.483Z,94.20
2017-11-25T07:29:05.936Z,94.30
2017-11-25T07:32:07.377Z,94.30
2017-11-25T07:35:09.569Z,94.40
2017-11-25T07:38:11.054Z,94.40
2017-11-25T07:41:12.517Z,94.40
2017-11-25T07:44:14.214Z,94.50
2017-11-25T07:47:15.937Z,94.50
2017-11-25T07:50:17.385Z,94.50
2017-11-25T07:53:18.765Z,94.50
2017-11-25T07:56:20.112Z,94.60
2017-11-25T07:59:21.567Z,94.50
2017-11-25T08:02:22.925Z,94.50
2017-11-25T08:05:24.315Z,94.50
2017-11-25T08:08:26.417Z,94.70
2017-11-25T08:11:27.822Z,94.70
2017-11-25T08:14:29.186Z,94.50
2017-11-25T08:17:31.256Z,94.50
2017-11-25T08:20:33.572Z,94.50
2017-11-25T08:23:34.946Z,94.50
2017-11-25T08:26:36.301Z,94.40
2017-11-25T08:29:37.613Z,94.50
2017-11-25T08:32:38.975Z,94.60
2017-11-25T08:35:40.325Z,94.80
2017-11-25T08:38:41.705Z,94.80
2017-11-25T08:41:43.048Z,94.80
2017-11-25T08:44:44.434Z,94.80
2017-11-25T08:47:46.528Z,94.80
2017-11-25T08:50:47.851Z,94.80
2017-11-25T08:53:50.032Z,94.60
2017-11-25T08:56:51.367Z,94.60
2017-11-25T08:59:53.474Z,94.60
2017-11-25T09:02:54.805Z,94.60
2017-11-25T09:05:56.230Z,94.80
2017-11-25T09:08:58.381Z,94.90
2017-11-25T09:11:59.725Z,94.90
2017-11-25T09:15:01.160Z,94.70
2017-11-25T09:18:02.744Z,94.60
2017-11-25T09:21:04.190Z,94.20
2017-11-25T09:24:05.557Z,94.80
2017-11-25T09:27:07.702Z,94.70
2017-11-25T09:30:09.237Z,94.60
2017-11-25T09:33:11.480Z,94.20
2017-11-25T09:36:12.811Z,94.30
2017-11-25T09:39:15.053Z,94.20
2017-11-25T09:42:16.420Z,94.10
2017-11-25T09:45:19.156Z,94.10
2017-11-25T09:48:20.505Z,94.60
2017-11-25T09:51:21.833Z,94.30
2017-11-25T09:54:23.228Z,94.50
2017-11-25T09:57:24.591Z,94.50
2017-11-25T10:00:25.993Z,94.10
2017-11-25T10:03:27.384Z,93.90
2017-11-25T10:06:28.761Z,93.30
2017-11-25T10:09:30.184Z,93.50
2017-11-25T10:12:32.198Z,93.80
2017-11-25T10:15:33.892Z,94.10
2017-11-25T10:18:35.327Z,94.40
2017-11-25T10:21:37.546Z,94.60
2017-11-25T10:24:38.911Z,94.20
2017-11-25T10:27:41.052Z,94.40
2017-11-25T10:30:42.317Z,94.30
2017-11-25T10:33:43.641Z,93.60
2017-11-25T10:36:44.969Z,94.10
2017-11-25T10:39:46.402Z,93.90
2017-11-25T10:42:47.822Z,93.70
2017-11-25T10:45:49.142Z,94.10
2017-11-25T10:48:50.493Z,94.20
2017-11-25T10:51:52.503Z,94.80
2017-11-25T10:54:54.633Z,94.50
2017-11-25T10:57:55.972Z,94.80
2017-11-25T11:00:57.308Z,94.80
2017-11-25T11:03:58.664Z,94.90
2017-11-25T11:06:59.987Z,95.20
2017-11-25T11:10:01.345Z,94.80
2017-11-25T11:13:02.758Z,94.80
2017-11-25T11:16:04.259Z,95.00
2017-11-25T11:19:05.618Z,95.20
2017-11-25T11:22:06.937Z,95.10
2017-11-25T11:25:08.291Z,95.30
2017-11-25T11:28:10.108Z,94.90
2017-11-25T11:31:11.472Z,95.90
2017-11-25T11:34:12.881Z,94.20
2017-11-25T11:37:14.266Z,94.40
2017-11-25T11:40:15.747Z,94.30
2017-11-25T11:43:17.865Z,94.90
2017-11-25T11:46:19.192Z,94.90
2017-11-25T11:49:27.583Z,94.60
2017-11-25T11:52:29.602Z,94.20
2017-11-25T11:55:31.700Z,94.30
2017-11-25T11:58:33.009Z,94.30
2017-11-25T12:01:34.398Z,93.90
2017-11-25T12:04:35.728Z,94.40
2017-11-25T12:07:37.171Z,94.60
2017-11-25T12:10:39.052Z,93.90
2017-11-25T12:13:40.385Z,94.30
2017-11-25T12:16:42.221Z,94.30
2017-11-25T12:19:44.271Z,94.50
2017-11-25T12:22:45.653Z,94.00
2017-11-25T12:25:47.745Z,92.70
2017-11-25T12:28:49.066Z,92.60
2017-11-25T12:31:50.410Z,93.50
2017-11-25T12:34:51.725Z,93.40
2017-11-25T12:37:53.780Z,92.90
2017-11-25T12:40:55.916Z,94.20
2017-11-25T12:43:57.256Z,93.80
2017-11-25T12:46:58.504Z,93.10
2017-11-25T12:49:59.838Z,92.50
2017-11-25T12:53:01.097Z,92.40
2017-11-25T12:56:02.473Z,92.40
2017-11-25T12:59:03.866Z,99.90
2017-11-25T13:02:05.207Z,90.30
2017-11-25T13:05:07.227Z,82.30
2017-11-25T13:08:08.539Z,82.30
2017-11-25T13:11:09.888Z,86.40
2017-11-25T13:14:11.192Z,89.80
2017-11-25T13:17:19.849Z,90.70
2017-11-25T13:20:21.192Z,90.90
2017-11-25T13:23:23.258Z,90.70
2017-11-25T13:26:25.285Z,91.10
2017-11-25T13:29:26.612Z,91.00
2017-11-25T13:32:27.929Z,91.70
2017-11-25T13:35:30.009Z,92.00
2017-11-25T13:38:31.349Z,92.00
2017-11-25T13:41:39.789Z,92.50
2017-11-25T13:44:41.150Z,92.90
2017-11-25T13:47:42.501Z,92.60
2017-11-25T13:50:43.936Z,92.90
2017-11-25T13:53:45.282Z,92.90
2017-11-25T13:56:46.639Z,92.70
2017-11-25T13:59:47.934Z,92.80
2017-11-25T14:02:49.292Z,92.10
2017-11-25T14:05:50.663Z,91.80
2017-11-25T14:08:52.953Z,92.30
2017-11-25T14:11:54.304Z,92.30
2017-11-25T14:14:55.635Z,93.10
2017-11-25T14:17:57.766Z,93.80
2017-11-25T14:20:59.080Z,93.80
2017-11-25T14:24:00.410Z,93.60
2017-11-25T14:27:01.709Z,93.30
2017-11-25T14:30:03.096Z,94.40
2017-11-25T14:33:05.177Z,94.40
2017-11-25T14:36:06.523Z,94.40
2017-11-25T14:39:07.847Z,94.10
2017-11-25T14:42:09.284Z,94.40
2017-11-25T14:45:10.646Z,93.70
2017-11-25T14:48:12.004Z,93.90
2017-11-25T14:51:13.374Z,93.80
2017-11-25T14:54:15.475Z,94.20
2017-11-25T14:57:16.899Z,94.10
2017-11-25T15:00:18.215Z,94.60
2017-11-25T15:03:19.565Z,94.20
2017-11-25T15:06:20.865Z,93.70
2017-11-25T15:09:22.224Z,94.10
2017-11-25T15:12:23.611Z,94.50
2017-11-25T15:15:24.961Z,94.60
2017-11-25T15:18:26.322Z,94.70
2017-11-25T15:21:27.672Z,94.80
2017-11-25T15:24:29.028Z,94.20
2017-11-25T15:27:31.071Z,94.20
2017-11-25T15:30:32.462Z,94.10
2017-11-25T15:33:33.790Z,94.30
2017-11-25T15:36:35.517Z,94.20
2017-11-25T15:39:36.874Z,93.80
2017-11-25T15:42:38.286Z,93.50
2017-11-25T15:45:39.633Z,94.00
2017-11-25T15:48:40.906Z,94.10
2017-11-25T15:51:43.151Z,94.20
2017-11-25T15:54:44.460Z,94.00
2017-11-25T15:57:45.837Z,93.90
2017-11-25T16:00:47.934Z,93.90
2017-11-25T16:03:49.315Z,93.90
2017-11-25T16:06:50.670Z,93.90
2017-11-25T16:09:51.954Z,93.70
2017-11-25T16:12:54.033Z,94.00
2017-11-25T16:15:55.351Z,93.90
2017-11-25T16:18:56.694Z,93.80
2017-11-25T16:21:58.049Z,94.10
2017-11-25T16:24:59.413Z,93.80
2017-11-25T16:28:01.491Z,93.60
2017-11-25T16:31:03.596Z,93.70
2017-11-25T16:34:04.937Z,93.70
2017-11-25T16:37:06.274Z,93.60
2017-11-25T16:40:07.691Z,93.80
2017-11-25T16:43:09.021Z,93.80
2017-11-25T16:46:10.382Z,93.70
2017-11-25T16:49:11.714Z,94.00
2017-11-25T16:52:13.057Z,94.00
2017-11-25T16:55:14.375Z,94.10
2017-11-25T16:58:15.712Z,94.20
2017-11-25T17:01:17.335Z,93.90
2017-11-25T17:04:18.635Z,93.90
2017-11-25T17:07:19.956Z,94.20
2017-11-25T17:10:22.042Z,94.10
2017-11-25T17:13:23.372Z,94.10
2017-11-25T17:16:25.385Z,94.20
2017-11-25T17:19:26.677Z,94.20
2017-11-25T17:22:27.937Z,94.20
2017-11-25T17:25:30.011Z,94.10
2017-11-25T17:28:32.319Z,93.90
2017-11-25T17:31:33.637Z,93.90
2017-11-25T17:34:34.950Z,93.90
2017-11-25T17:37:36.285Z,94.20
2017-11-25T17:40:37.699Z,93.70
2017-11-25T17:43:39.013Z,93.90
2017-11-25T17:46:40.387Z,93.80
2017-11-25T17:49:41.709Z,93.80
2017-11-25T17:52:43.089Z,93.70
2017-11-25T17:55:44.432Z,93.20
2017-11-25T17:58:46.482Z,92.80
2017-11-25T18:01:47.831Z,92.70
2017-11-25T18:04:49.136Z,92.90
2017-11-25T18:07:50.495Z,92.50
2017-11-25T18:10:51.809Z,92.60
2017-11-25T18:13:53.175Z,92.70
2017-11-25T18:16:54.489Z,91.90
2017-11-25T18:19:56.632Z,91.50
2017-11-25T18:22:57.994Z,91.40
2017-11-25T18:25:59.383Z,91.40
2017-11-25T18:29:00.761Z,91.50
2017-11-25T18:32:02.114Z,92.10
2017-11-25T18:35:03.929Z,92.20
2017-11-25T18:38:05.991Z,91.90
2017-11-25T18:41:08.132Z,92.10
2017-11-25T18:44:09.478Z,92.10
2017-11-25T18:47:10.855Z,91.70
2017-11-25T18:50:12.953Z,91.80
2017-11-25T18:53:14.309Z,91.80
2017-11-25T18:56:15.743Z,91.60
2017-11-25T18:59:17.273Z,91.70
2017-11-25T19:02:18.777Z,91.80
2017-11-25T19:08:47.558Z,93.40
2017-11-25T19:11:49.018Z,91.30
2017-11-25T19:14:50.501Z,91.50
2017-11-25T19:17:52.175Z,91.50
2017-11-25T19:20:53.627Z,93.30
2017-11-25T19:23:55.486Z,92.60
2017-11-25T19:26:56.896Z,91.50
2017-11-25T19:29:58.436Z,91.40
2017-11-25T19:32:59.940Z,91.80
2017-11-25T19:39:17.416Z,92.00
2017-11-25T19:42:18.814Z,91.90
2017-11-25T19:45:20.177Z,92.30
2017-11-25T19:48:21.535Z,92.20
2017-11-25T19:51:23.182Z,92.20
2017-11-25T19:54:24.500Z,92.70
2017-11-25T19:57:25.906Z,92.40
2017-11-25T20:00:27.336Z,92.50
2017-11-25T20:03:29.720Z,92.40
2017-11-25T20:06:31.100Z,92.60
2017-11-25T20:09:32.426Z,92.80
2017-11-25T20:12:40.813Z,92.40
2017-11-25T20:15:42.203Z,92.40
2017-11-25T20:18:44.590Z,92.30
2017-11-25T20:21:46.166Z,92.40
2017-11-25T20:24:47.623Z,92.60
2017-11-25T20:27:49.713Z,92.70
2017-11-25T20:30:51.069Z,92.70
2017-11-25T20:33:52.572Z,92.70
2017-11-25T20:36:54.770Z,93.00
2017-11-25T20:39:56.158Z,92.60
2017-11-25T20:42:57.527Z,92.60
2017-11-25T20:45:59.101Z,92.60
2017-11-25T20:49:00.432Z,92.60
2017-11-25T20:52:01.774Z,92.60
2017-11-25T20:55:03.098Z,92.50
2017-11-25T20:58:04.565Z,93.00
2017-11-25T21:01:05.905Z,92.90
2017-11-25T21:04:07.327Z,92.60
2017-11-25T21:07:08.655Z,92.40
2017-11-25T21:10:10.060Z,92.60
2017-11-25T21:13:11.500Z,92.40
2017-11-25T21:16:13.728Z,92.70
2017-11-25T21:19:15.275Z,92.60
2017-11-25T21:22:16.739Z,92.70
2017-11-25T21:25:18.176Z,92.50
2017-11-25T21:28:19.660Z,92.70
2017-11-25T21:31:21.496Z,92.90
2017-11-25T21:34:24.372Z,93.30
2017-11-25T21:37:25.769Z,93.00
2017-11-25T21:40:27.927Z,93.40
2017-11-25T21:43:29.269Z,93.40
2017-11-25T21:46:30.685Z,93.40
2017-11-25T21:49:32.057Z,93.40
2017-11-25T21:52:33.391Z,93.50
2017-11-25T21:55:34.730Z,93.40
2017-11-25T21:58:36.182Z,93.60
2017-11-25T22:01:37.581Z,93.80
2017-11-25T22:04:39.374Z,95.70
2017-11-25T22:07:41.614Z,93.30
2017-11-25T22:10:43.005Z,93.20
2017-11-25T22:13:44.512Z,93.40
2017-11-25T22:16:45.928Z,93.60
2017-11-25T22:19:47.350Z,93.40
2017-11-25T22:22:49.489Z,93.20
2017-11-25T22:25:50.914Z,93.20
2017-11-25T22:28:53.389Z,93.30
2017-11-25T22:31:54.822Z,93.30
2017-11-25T22:34:56.639Z,93.30
2017-11-25T22:37:57.995Z,93.20
2017-11-25T22:40:59.558Z,93.20
2017-11-25T22:44:01.031Z,93.30
2017-11-25T22:47:02.487Z,92.80
2017-11-25T22:50:04.804Z,93.10
2017-11-25T22:53:06.260Z,93.00
2017-11-25T22:56:07.880Z,93.20
2017-11-25T22:59:09.608Z,93.40
2017-11-25T23:02:11.141Z,93.70
2017-11-25T23:05:12.627Z,93.90
2017-11-25T23:08:14.023Z,93.80
2017-11-25T23:11:15.509Z,94.20
2017-11-25T23:14:17.019Z,94.10
2017-11-25T23:17:18.442Z,94.20
2017-11-25T23:20:20.602Z,93.90
2017-11-25T23:23:22.734Z,94.10
2017-11-25T23:26:24.176Z,94.10
2017-11-25T23:29:25.606Z,94.10
2017-11-25T23:32:27.097Z,94.10
2017-11-25T23:35:28.481Z,94.20
2017-11-25T23:41:39.059Z,94.30
2017-11-25T23:44:41.253Z,94.50
2017-11-25T23:47:42.706Z,94.40
2017-11-25T23:50:44.109Z,94.60
2017-11-25T23:53:45.538Z,94.50
2017-11-25T23:56:46.953Z,94.30
2017-11-25T23:59:48.353Z,94.60
